createdAt,value
2019-03-30T00:00:29.633Z,27.23
2019-03-30T00:03:00.890Z,18.73
2019-03-30T00:05:32.690Z,18.60
2019-03-30T00:08:04.137Z,20.93
2019-03-30T00:10:35.644Z,18.50
2019-03-30T00:13:07.238Z,19.77
2019-03-30T00:15:38.442Z,18.07
2019-03-30T00:18:09.655Z,18.87
2019-03-30T00:20:40.933Z,17.47
2019-03-30T00:23:12.119Z,19.10
2019-03-30T00:25:43.744Z,17.67
2019-03-30T00:28:15.286Z,17.37
2019-03-30T00:30:46.738Z,18.80
2019-03-30T00:33:17.965Z,18.53
2019-03-30T00:35:49.127Z,17.97
2019-03-30T00:38:20.355Z,15.87
2019-03-30T00:40:51.791Z,19.03
2019-03-30T00:43:23.024Z,18.60
2019-03-30T00:45:54.196Z,18.13
2019-03-30T00:48:25.661Z,18.00
2019-03-30T00:50:56.879Z,20.23
2019-03-30T00:53:28.122Z,20.47
2019-03-30T00:55:59.267Z,18.37
2019-03-30T00:58:30.454Z,18.17
2019-03-30T01:01:01.774Z,16.60
2019-03-30T01:03:32.986Z,17.67
2019-03-30T01:06:04.451Z,18.47
2019-03-30T01:08:35.662Z,18.00
2019-03-30T01:11:07.252Z,18.43
2019-03-30T01:13:38.480Z,19.50
2019-03-30T01:16:10.595Z,19.80
2019-03-30T01:18:46.176Z,21.60
2019-03-30T01:21:18.125Z,23.73
2019-03-30T01:23:51.652Z,23.37
2019-03-30T01:26:22.896Z,22.50
2019-03-30T01:28:54.099Z,19.87
2019-03-30T01:31:25.296Z,21.37
2019-03-30T01:33:56.610Z,23.03
2019-03-30T01:36:28.198Z,24.27
2019-03-30T01:38:59.354Z,22.03
2019-03-30T01:41:30.506Z,20.20
2019-03-30T01:44:01.949Z,21.47
2019-03-30T01:46:33.172Z,19.20
2019-03-30T01:49:04.591Z,21.57
2019-03-30T01:51:36.148Z,19.03
2019-03-30T01:54:07.322Z,19.10
2019-03-30T01:56:39.355Z,23.67
2019-03-30T01:59:10.800Z,22.37
2019-03-30T02:01:41.942Z,20.70
2019-03-30T02:04:13.132Z,20.17
2019-03-30T02:06:44.316Z,22.63
2019-03-30T02:09:22.527Z,23.70
2019-03-30T02:11:53.973Z,24.00
2019-03-30T02:14:25.248Z,25.63
2019-03-30T02:16:56.569Z,23.93
2019-03-30T02:19:27.735Z,24.47
2019-03-30T02:21:58.920Z,22.93
2019-03-30T02:24:30.729Z,25.53
2019-03-30T02:27:02.270Z,24.63
2019-03-30T02:29:51.113Z,23.90
2019-03-30T02:32:22.853Z,24.87
2019-03-30T02:34:54.005Z,22.27
2019-03-30T02:37:25.560Z,24.63
2019-03-30T02:39:56.715Z,23.07
2019-03-30T02:42:28.257Z,21.63
2019-03-30T02:44:59.454Z,19.50
2019-03-30T02:47:30.596Z,22.27
2019-03-30T02:50:02.077Z,20.77
2019-03-30T02:52:33.624Z,19.13
2019-03-30T02:55:04.845Z,19.43
2019-03-30T02:57:36.388Z,21.07
2019-03-30T03:00:10.239Z,19.03
2019-03-30T03:02:41.436Z,20.17
2019-03-30T03:05:13.036Z,20.60
2019-03-30T03:07:44.244Z,20.10
2019-03-30T03:10:15.957Z,21.87
2019-03-30T03:12:47.411Z,19.90
2019-03-30T03:15:18.766Z,21.20
2019-03-30T03:17:49.951Z,19.90
2019-03-30T03:20:22.150Z,22.33
2019-03-30T03:22:53.482Z,22.47
2019-03-30T03:25:24.676Z,23.17
2019-03-30T03:27:56.189Z,22.53
2019-03-30T03:30:27.645Z,19.93
2019-03-30T03:32:59.226Z,23.17
2019-03-30T03:35:31.039Z,25.00
2019-03-30T03:38:02.655Z,22.77
2019-03-30T03:40:34.004Z,23.50
2019-03-30T03:43:06.033Z,20.70
2019-03-30T03:45:37.183Z,25.13
2019-03-30T03:48:08.374Z,22.97
2019-03-30T03:50:48.842Z,23.47
2019-03-30T03:53:20.021Z,22.10
2019-03-30T03:55:51.675Z,24.00
2019-03-30T03:58:26.921Z,22.33
2019-03-30T04:01:02.490Z,21.47
2019-03-30T04:03:35.301Z,23.03
2019-03-30T04:06:10.207Z,20.83
2019-03-30T04:08:43.882Z,22.87
2019-03-30T04:11:18.535Z,21.87
2019-03-30T04:13:53.032Z,21.40
2019-03-30T04:16:24.800Z,24.30
2019-03-30T04:18:55.995Z,20.13
2019-03-30T04:21:42.865Z,22.90
2019-03-30T04:24:00.445Z,22.20
2019-03-30T04:26:31.600Z,22.77
2019-03-30T04:29:02.910Z,21.50
2019-03-30T04:31:53.117Z,24.13
2019-03-30T04:34:24.358Z,24.47
2019-03-30T04:36:56.081Z,28.47
2019-03-30T04:39:27.662Z,27.80
2019-03-30T04:41:58.815Z,23.43
2019-03-30T04:44:30.002Z,25.80
2019-03-30T04:47:01.222Z,27.40
2019-03-30T04:49:32.381Z,25.43
2019-03-30T04:52:03.537Z,28.03
2019-03-30T04:54:34.673Z,25.37
2019-03-30T04:57:06.184Z,25.60
2019-03-30T04:59:37.325Z,25.57
2019-03-30T05:02:08.503Z,26.07
2019-03-30T05:04:39.678Z,26.40
2019-03-30T05:07:10.828Z,27.70
2019-03-30T05:09:42.242Z,25.47
2019-03-30T05:12:13.406Z,21.40
2019-03-30T05:14:45.123Z,21.97
2019-03-30T05:17:16.284Z,24.97
2019-03-30T05:19:48.486Z,27.87
2019-03-30T05:22:20.039Z,24.93
2019-03-30T05:24:51.429Z,25.90
2019-03-30T05:27:22.566Z,25.93
2019-03-30T05:29:54.005Z,24.40
2019-03-30T05:32:25.472Z,25.57
2019-03-30T05:34:56.935Z,25.63
2019-03-30T05:37:28.082Z,24.30
2019-03-30T05:39:59.252Z,24.97
2019-03-30T05:42:30.675Z,25.77
2019-03-30T05:45:01.892Z,26.53
2019-03-30T05:47:34.146Z,26.03
2019-03-30T05:50:05.890Z,25.27
2019-03-30T05:52:37.109Z,26.60
2019-03-30T05:55:08.678Z,22.63
2019-03-30T05:57:40.181Z,23.10
2019-03-30T06:00:17.067Z,21.27
2019-03-30T06:02:48.548Z,24.17
2019-03-30T06:05:19.713Z,24.57
2019-03-30T06:07:50.964Z,24.07
2019-03-30T06:10:22.463Z,24.73
2019-03-30T06:12:53.900Z,23.17
2019-03-30T06:15:25.305Z,22.60
2019-03-30T06:17:57.395Z,22.33
2019-03-30T06:20:28.583Z,26.40
2019-03-30T06:23:00.500Z,23.43
2019-03-30T06:25:32.085Z,22.37
2019-03-30T06:28:03.217Z,22.33
2019-03-30T06:30:34.627Z,23.03
2019-03-30T06:33:06.121Z,20.87
2019-03-30T06:35:37.265Z,22.10
2019-03-30T06:38:08.432Z,22.80
2019-03-30T06:40:39.653Z,22.20
2019-03-30T06:43:10.862Z,22.20
2019-03-30T06:45:42.418Z,22.67
2019-03-30T06:48:13.634Z,19.80
2019-03-30T06:50:44.834Z,22.40
2019-03-30T06:53:16.205Z,21.10
2019-03-30T06:55:47.754Z,19.27
2019-03-30T06:58:19.184Z,20.73
2019-03-30T07:00:51.457Z,22.33
2019-03-30T07:03:23.643Z,21.20
2019-03-30T07:06:04.928Z,24.20
2019-03-30T07:08:37.313Z,18.50
2019-03-30T07:11:20.592Z,22.27
2019-03-30T07:13:44.995Z,19.57
2019-03-30T07:16:16.150Z,18.13
2019-03-30T07:18:48.303Z,19.37
2019-03-30T07:21:19.490Z,18.23
2019-03-30T07:23:50.672Z,20.00
2019-03-30T07:26:21.892Z,16.73
2019-03-30T07:28:53.287Z,17.93
2019-03-30T07:31:24.548Z,20.30
2019-03-30T07:33:55.740Z,16.70
2019-03-30T07:36:26.921Z,17.97
2019-03-30T07:38:58.143Z,18.40
2019-03-30T07:41:29.550Z,18.93
2019-03-30T07:44:01.034Z,16.97
2019-03-30T07:46:32.829Z,20.73
2019-03-30T07:49:05.311Z,15.23
2019-03-30T07:51:36.471Z,17.00
2019-03-30T07:54:07.594Z,17.93
2019-03-30T07:56:38.691Z,15.63
2019-03-30T07:59:09.864Z,20.40
2019-03-30T08:01:41.036Z,17.27
2019-03-30T08:04:12.197Z,16.93
2019-03-30T08:06:43.473Z,14.73
2019-03-30T08:09:16.100Z,14.33
2019-03-30T08:11:47.281Z,14.07
2019-03-30T08:14:18.493Z,17.07
2019-03-30T08:16:49.946Z,15.03
2019-03-30T08:19:21.978Z,13.87
2019-03-30T08:21:53.435Z,13.80
2019-03-30T08:24:27.539Z,12.27
2019-03-30T08:26:58.365Z,12.70
2019-03-30T08:29:31.083Z,15.70
2019-03-30T08:32:02.660Z,12.27
2019-03-30T08:34:34.493Z,13.47
2019-03-30T08:37:05.669Z,19.20
2019-03-30T08:39:36.955Z,14.63
2019-03-30T08:42:08.421Z,21.27
2019-03-30T08:44:50.431Z,12.00
2019-03-30T08:47:22.388Z,14.80
2019-03-30T08:49:53.578Z,12.63
2019-03-30T08:52:25.056Z,12.37
2019-03-30T08:54:56.756Z,14.13
2019-03-30T08:57:38.031Z,15.57
2019-03-30T09:00:09.636Z,13.70
2019-03-30T09:02:40.788Z,13.37
2019-03-30T09:05:13.826Z,13.23
2019-03-30T09:07:45.436Z,11.27
2019-03-30T09:10:16.599Z,12.53
2019-03-30T09:12:51.358Z,11.90
2019-03-30T09:15:22.690Z,12.40
2019-03-30T09:17:54.130Z,13.23
2019-03-30T09:20:25.267Z,12.67
2019-03-30T09:22:56.736Z,13.50
2019-03-30T09:25:28.235Z,13.40
2019-03-30T09:27:59.659Z,12.10
2019-03-30T09:30:31.320Z,11.97
2019-03-30T09:33:02.600Z,12.23
2019-03-30T09:35:34.023Z,14.60
2019-03-30T09:38:05.170Z,13.60
2019-03-30T09:40:36.602Z,11.20
2019-03-30T09:43:08.043Z,12.50
2019-03-30T09:45:39.285Z,13.17
2019-03-30T09:48:10.689Z,14.43
2019-03-30T09:50:42.109Z,11.73
2019-03-30T09:53:13.392Z,13.30
2019-03-30T09:55:44.554Z,11.87
2019-03-30T09:58:15.722Z,14.23
2019-03-30T10:00:47.179Z,14.40
2019-03-30T10:03:18.461Z,13.33
2019-03-30T10:06:08.623Z,14.60
2019-03-30T10:08:40.573Z,13.40
2019-03-30T10:11:17.239Z,13.13
2019-03-30T10:13:48.441Z,18.03
2019-03-30T10:16:19.892Z,14.77
2019-03-30T10:18:51.577Z,12.73
2019-03-30T10:21:22.775Z,14.63
2019-03-30T10:23:53.956Z,13.60
2019-03-30T10:26:25.112Z,12.33
2019-03-30T10:28:56.561Z,16.80
2019-03-30T10:31:27.756Z,14.30
2019-03-30T10:33:59.337Z,16.17
2019-03-30T10:36:30.787Z,15.50
2019-03-30T10:39:05.386Z,14.43
2019-03-30T10:41:36.558Z,15.20
2019-03-30T10:44:08.421Z,14.20
2019-03-30T10:46:40.656Z,13.93
2019-03-30T10:49:12.367Z,16.90
2019-03-30T10:51:43.536Z,18.60
2019-03-30T10:54:15.005Z,14.10
2019-03-30T10:56:52.134Z,14.60
2019-03-30T10:59:23.315Z,13.87
2019-03-30T11:01:54.487Z,14.63
2019-03-30T11:04:25.632Z,14.93
2019-03-30T11:06:56.771Z,16.27
2019-03-30T11:09:28.273Z,14.63
2019-03-30T11:11:59.463Z,16.87
2019-03-30T11:14:31.176Z,15.10
2019-03-30T11:17:03.779Z,15.77
2019-03-30T11:19:35.049Z,14.60
2019-03-30T11:22:06.531Z,12.90
2019-03-30T11:24:38.575Z,16.13
2019-03-30T11:27:10.046Z,13.73
2019-03-30T11:29:41.382Z,14.73
2019-03-30T11:32:18.450Z,15.23
2019-03-30T11:34:49.656Z,15.97
2019-03-30T11:37:28.972Z,14.70
2019-03-30T11:40:00.408Z,13.37
2019-03-30T11:42:31.839Z,14.30
2019-03-30T11:45:03.151Z,12.77
2019-03-30T11:47:34.340Z,12.90
2019-03-30T11:50:06.863Z,14.30
2019-03-30T11:52:38.682Z,15.50
2019-03-30T11:55:21.020Z,12.97
2019-03-30T11:57:43.917Z,12.90
2019-03-30T12:00:17.718Z,15.10
2019-03-30T12:02:48.898Z,13.70
2019-03-30T12:05:20.095Z,11.20
2019-03-30T12:07:51.490Z,11.03
2019-03-30T12:10:22.787Z,11.67
2019-03-30T12:12:57.639Z,10.80
2019-03-30T12:15:29.031Z,11.27
2019-03-30T12:18:00.256Z,10.23
2019-03-30T12:20:31.787Z,11.00
2019-03-30T12:23:03.569Z,10.53
2019-03-30T12:25:37.167Z,11.47
2019-03-30T12:28:08.441Z,10.20
2019-03-30T12:30:40.195Z,11.37
2019-03-30T12:33:11.672Z,9.30
2019-03-30T12:35:42.899Z,9.33
2019-03-30T12:38:14.463Z,10.33
2019-03-30T12:40:45.875Z,7.87
2019-03-30T12:43:17.104Z,10.67
2019-03-30T12:45:48.267Z,8.80
2019-03-30T12:48:20.026Z,11.23
2019-03-30T12:50:51.225Z,7.47
2019-03-30T12:53:23.354Z,12.27
2019-03-30T12:55:54.808Z,11.07
2019-03-30T12:58:26.015Z,12.03
2019-03-30T13:00:57.445Z,12.27
2019-03-30T13:03:28.674Z,16.17
2019-03-30T13:06:06.937Z,12.03
2019-03-30T13:08:38.067Z,9.63
2019-03-30T13:11:09.248Z,12.90
2019-03-30T13:13:40.381Z,9.77
2019-03-30T13:16:11.814Z,12.13
2019-03-30T13:18:43.445Z,11.00
2019-03-30T13:21:14.571Z,13.20
2019-03-30T13:23:45.995Z,11.70
2019-03-30T13:26:17.185Z,11.27
2019-03-30T13:28:48.974Z,11.13
2019-03-30T13:31:20.431Z,14.63
2019-03-30T13:33:51.625Z,12.67
2019-03-30T13:36:38.892Z,12.77
2019-03-30T13:39:11.342Z,11.30
2019-03-30T13:41:42.475Z,9.70
2019-03-30T13:44:13.622Z,10.73
2019-03-30T13:46:44.754Z,8.47
2019-03-30T13:49:15.946Z,9.37
2019-03-30T13:51:47.360Z,9.53
2019-03-30T13:54:18.786Z,10.13
2019-03-30T13:56:49.969Z,9.20
2019-03-30T13:59:21.429Z,8.70
2019-03-30T14:01:53.445Z,8.63
2019-03-30T14:04:25.017Z,8.57
2019-03-30T14:06:56.410Z,10.33
2019-03-30T14:09:27.580Z,10.07
2019-03-30T14:11:59.024Z,10.63
2019-03-30T14:14:30.467Z,7.90
2019-03-30T14:17:01.630Z,8.37
2019-03-30T14:19:33.081Z,9.37
2019-03-30T14:22:04.230Z,7.37
2019-03-30T14:24:35.450Z,8.93
2019-03-30T14:27:06.640Z,7.33
2019-03-30T14:29:38.149Z,10.50
2019-03-30T14:32:09.334Z,8.03
2019-03-30T14:34:40.545Z,9.30
2019-03-30T14:37:11.684Z,8.53
2019-03-30T14:39:43.397Z,8.73
2019-03-30T14:42:14.564Z,9.10
2019-03-30T14:44:45.734Z,7.87
2019-03-30T14:47:16.901Z,9.40
2019-03-30T14:49:48.324Z,8.30
2019-03-30T14:52:19.818Z,7.20
2019-03-30T14:54:53.035Z,10.17
2019-03-30T14:57:24.235Z,8.43
2019-03-30T14:59:55.397Z,9.10
2019-03-30T15:02:26.847Z,7.90
2019-03-30T15:05:00.980Z,9.13
2019-03-30T15:07:31.227Z,8.83
2019-03-30T15:10:02.390Z,11.17
2019-03-30T15:12:34.244Z,8.10
2019-03-30T15:15:06.235Z,11.23
2019-03-30T15:17:40.408Z,9.43
2019-03-30T15:20:11.592Z,7.67
2019-03-30T15:22:42.821Z,7.63
2019-03-30T15:25:15.579Z,11.80
2019-03-30T15:27:46.769Z,10.50
2019-03-30T15:30:17.962Z,10.07
2019-03-30T15:32:49.310Z,8.37
2019-03-30T15:35:20.501Z,8.90
2019-03-30T15:37:51.666Z,8.40
2019-03-30T15:40:22.846Z,7.93
2019-03-30T15:42:54.080Z,8.57
2019-03-30T15:45:25.272Z,9.13
2019-03-30T15:47:56.738Z,10.67
2019-03-30T15:50:27.974Z,9.07
2019-03-30T15:52:59.493Z,8.83
2019-03-30T15:55:30.634Z,15.00
2019-03-30T15:58:02.062Z,8.27
2019-03-30T16:00:33.217Z,9.27
2019-03-30T16:03:04.674Z,7.53
2019-03-30T16:05:35.847Z,9.30
2019-03-30T16:08:06.991Z,10.00
2019-03-30T16:10:38.182Z,9.30
2019-03-30T16:13:09.335Z,9.47
2019-03-30T16:15:44.442Z,7.47
2019-03-30T16:18:13.847Z,8.53
2019-03-30T16:20:45.011Z,8.70
2019-03-30T16:23:16.165Z,10.87
2019-03-30T16:25:47.275Z,11.03
2019-03-30T16:28:18.715Z,9.50
2019-03-30T16:30:49.884Z,9.10
2019-03-30T16:33:21.599Z,11.20
2019-03-30T16:35:52.764Z,10.37
2019-03-30T16:38:23.986Z,8.57
2019-03-30T16:40:55.853Z,10.73
2019-03-30T16:43:27.075Z,10.93
2019-03-30T16:45:58.478Z,9.77
2019-03-30T16:48:29.650Z,9.17
2019-03-30T16:51:01.071Z,9.13
2019-03-30T16:53:32.234Z,7.67
2019-03-30T16:56:03.360Z,8.70
2019-03-30T16:58:34.892Z,10.27
2019-03-30T17:01:06.102Z,9.97
2019-03-30T17:03:37.516Z,22.90
2019-03-30T17:06:09.463Z,11.37
2019-03-30T17:08:50.338Z,11.67
2019-03-30T17:11:21.525Z,8.77
2019-03-30T17:13:52.987Z,9.33
2019-03-30T17:16:24.248Z,9.33
2019-03-30T17:18:55.435Z,9.57
2019-03-30T17:21:26.842Z,8.40
2019-03-30T17:23:57.976Z,9.77
2019-03-30T17:26:29.150Z,9.30
2019-03-30T17:29:00.553Z,10.83
2019-03-30T17:31:37.703Z,8.87
2019-03-30T17:34:08.884Z,9.00
2019-03-30T17:36:40.355Z,9.43
2019-03-30T17:39:12.505Z,10.87
2019-03-30T17:41:43.676Z,11.23
2019-03-30T17:44:14.852Z,13.50
2019-03-30T17:46:48.105Z,13.10
2019-03-30T17:49:19.314Z,13.33
2019-03-30T17:51:53.880Z,12.90
2019-03-30T17:54:24.058Z,13.80
2019-03-30T17:56:55.699Z,11.97
2019-03-30T17:59:26.896Z,11.90
2019-03-30T18:02:03.147Z,13.13
2019-03-30T18:04:34.591Z,13.63
2019-03-30T18:07:05.756Z,13.57
2019-03-30T18:09:37.567Z,13.40
2019-03-30T18:12:08.704Z,18.50
2019-03-30T18:14:40.195Z,16.93
2019-03-30T18:17:11.331Z,20.03
2019-03-30T18:19:42.502Z,22.07
2019-03-30T18:22:13.726Z,18.57
2019-03-30T18:24:44.912Z,21.00
2019-03-30T18:27:16.113Z,19.43
2019-03-30T18:29:47.586Z,15.90
2019-03-30T18:32:20.261Z,16.70
2019-03-30T18:34:52.211Z,14.60
2019-03-30T18:37:24.908Z,14.40
2019-03-30T18:39:56.436Z,14.80
2019-03-30T18:42:28.983Z,16.13
2019-03-30T18:45:01.705Z,13.70
2019-03-30T18:47:32.923Z,13.70
2019-03-30T18:50:04.431Z,19.03
2019-03-30T18:52:36.119Z,18.13
2019-03-30T18:55:07.498Z,18.23
2019-03-30T18:57:39.432Z,22.13
2019-03-30T19:00:12.419Z,20.23
2019-03-30T19:02:43.666Z,18.33
2019-03-30T19:05:14.821Z,20.10
2019-03-30T19:07:46.045Z,20.30
2019-03-30T19:10:17.613Z,23.63
2019-03-30T19:12:49.094Z,21.17
2019-03-30T19:15:20.345Z,19.50
2019-03-30T19:17:51.837Z,22.57
2019-03-30T19:20:23.054Z,17.77
2019-03-30T19:22:56.513Z,19.90
2019-03-30T19:25:29.702Z,18.57
2019-03-30T19:28:00.867Z,35.80
2019-03-30T19:30:32.132Z,43.53
2019-03-30T19:33:04.044Z,40.10
2019-03-30T19:35:35.580Z,52.40
2019-03-30T19:38:06.878Z,51.70
2019-03-30T19:40:38.860Z,51.67
2019-03-30T19:43:10.390Z,47.50
2019-03-30T19:45:41.598Z,51.23
2019-03-30T19:48:13.146Z,61.30
2019-03-30T19:50:44.356Z,55.73
2019-03-30T19:53:15.849Z,64.20
2019-03-30T19:55:47.667Z,60.90
2019-03-30T19:58:19.197Z,60.83
2019-03-30T20:00:50.954Z,67.00
2019-03-30T20:03:32.409Z,67.37
2019-03-30T20:06:03.592Z,64.37
2019-03-30T20:08:34.994Z,65.10
2019-03-30T20:11:06.327Z,68.97
2019-03-30T20:13:37.554Z,65.67
2019-03-30T20:16:09.348Z,67.90
2019-03-30T20:18:40.519Z,69.77
2019-03-30T20:21:12.027Z,74.40
2019-03-30T20:23:43.301Z,72.50
2019-03-30T20:26:15.420Z,77.80
2019-03-30T20:28:46.636Z,73.70
2019-03-30T20:31:17.916Z,66.53
2019-03-30T20:33:49.107Z,65.93
2019-03-30T20:36:20.666Z,68.57
2019-03-30T20:38:51.978Z,67.03
2019-03-30T20:41:23.561Z,76.70
2019-03-30T20:43:54.738Z,72.97
2019-03-30T20:46:25.907Z,73.10
2019-03-30T20:48:57.142Z,77.80
2019-03-30T20:51:28.702Z,74.73
2019-03-30T20:53:59.928Z,77.73
2019-03-30T20:56:31.095Z,74.73
2019-03-30T20:59:06.461Z,77.97
2019-03-30T21:01:38.487Z,73.07
2019-03-30T21:04:10.100Z,87.67
2019-03-30T21:06:47.586Z,74.67
2019-03-30T21:09:18.785Z,67.77
2019-03-30T21:11:49.979Z,69.70
2019-03-30T21:14:21.500Z,68.87
2019-03-30T21:16:53.515Z,72.80
2019-03-30T21:19:24.956Z,65.87
2019-03-30T21:21:56.782Z,67.63
2019-03-30T21:24:27.951Z,67.80
2019-03-30T21:26:59.176Z,68.77
2019-03-30T21:29:30.909Z,68.17
2019-03-30T21:32:03.380Z,68.37
2019-03-30T21:34:34.859Z,67.23
2019-03-30T21:37:06.129Z,65.77
2019-03-30T21:39:37.280Z,69.67
2019-03-30T21:42:09.055Z,69.50
2019-03-30T21:44:40.259Z,65.13
2019-03-30T21:47:11.419Z,69.93
2019-03-30T21:49:46.996Z,67.03
2019-03-30T21:52:18.651Z,67.70
2019-03-30T21:54:50.139Z,68.23
2019-03-30T21:57:21.327Z,68.70
2019-03-30T21:59:52.496Z,69.33
2019-03-30T22:02:23.673Z,70.00
2019-03-30T22:04:54.801Z,66.87
2019-03-30T22:07:26.537Z,65.27
2019-03-30T22:09:59.178Z,71.10
2019-03-30T22:12:30.666Z,67.30
2019-03-30T22:15:02.143Z,69.17
2019-03-30T22:17:33.321Z,68.47
2019-03-30T22:20:05.260Z,65.40
2019-03-30T22:22:36.703Z,62.83
2019-03-30T22:25:09.037Z,62.83
2019-03-30T22:27:40.262Z,67.13
2019-03-30T22:30:24.010Z,64.43
2019-03-30T22:32:44.772Z,66.97
2019-03-30T22:35:16.061Z,68.50
2019-03-30T22:37:47.248Z,64.03
2019-03-30T22:40:18.611Z,66.73
2019-03-30T22:42:50.069Z,64.47
2019-03-30T22:45:21.515Z,65.83
2019-03-30T22:47:52.663Z,64.80
2019-03-30T22:50:24.113Z,62.50
2019-03-30T22:52:55.363Z,68.43
2019-03-30T22:55:26.512Z,66.17
2019-03-30T22:57:57.963Z,69.23
2019-03-30T23:00:47.247Z,64.83
2019-03-30T23:03:18.443Z,64.40
2019-03-30T23:05:52.027Z,62.27
2019-03-30T23:08:23.219Z,66.27
2019-03-30T23:10:54.409Z,73.67
2019-03-30T23:13:25.608Z,64.07
2019-03-30T23:15:57.423Z,71.43
2019-03-30T23:18:28.607Z,72.40
2019-03-30T23:20:59.762Z,70.73
2019-03-30T23:23:32.049Z,73.53
2019-03-30T23:26:03.216Z,69.57
2019-03-30T23:28:34.698Z,69.00
2019-03-30T23:31:05.889Z,66.90
2019-03-30T23:33:37.368Z,66.87
2019-03-30T23:36:08.569Z,66.00
2019-03-30T23:38:39.785Z,72.60
2019-03-30T23:41:11.057Z,71.77
2019-03-30T23:43:42.483Z,72.40
2019-03-30T23:46:13.776Z,70.87
2019-03-30T23:48:45.204Z,70.53
2019-03-30T23:51:16.691Z,73.73
2019-03-30T23:53:48.461Z,71.17
2019-03-30T23:56:23.236Z,77.17
2019-03-30T23:58:57.575Z,78.17
